createdAt,value
2023-02-15T00:00:30.419Z,18.68
2023-02-15T00:01:30.390Z,18.68
2023-02-15T00:02:30.365Z,18.70
2023-02-15T00:03:30.371Z,18.70
2023-02-15T00:04:30.344Z,18.70
2023-02-15T00:05:30.334Z,18.68
2023-02-15T00:06:30.318Z,18.68
2023-02-15T00:07:30.309Z,18.68
2023-02-15T00:08:30.313Z,18.66
2023-02-15T00:09:30.314Z,18.66
2023-02-15T00:10:30.291Z,18.63
2023-02-15T00:11:30.273Z,18.63
2023-02-15T00:12:30.261Z,18.66
2023-02-15T00:13:30.240Z,18.65
2023-02-15T00:14:30.234Z,18.66
2023-02-15T00:15:30.242Z,18.66
2023-02-15T00:16:30.272Z,18.65
2023-02-15T00:17:30.222Z,18.65
2023-02-15T00:18:30.189Z,18.63
2023-02-15T00:19:30.211Z,18.65
2023-02-15T00:20:30.188Z,18.62
2023-02-15T00:21:30.231Z,18.62
2023-02-15T00:22:30.145Z,18.62
2023-02-15T00:23:30.140Z,18.62
2023-02-15T00:24:30.122Z,18.60
2023-02-15T00:25:30.124Z,18.59
2023-02-15T00:26:30.111Z,18.60
2023-02-15T00:27:30.094Z,18.60
2023-02-15T00:28:30.076Z,18.59
2023-02-15T00:29:30.079Z,18.58
2023-02-15T00:30:30.129Z,18.58
2023-02-15T00:31:30.132Z,18.56
2023-02-15T00:32:30.029Z,18.59
2023-02-15T00:33:30.057Z,18.58
2023-02-15T00:34:30.049Z,18.56
2023-02-15T00:35:30.033Z,18.56
2023-02-15T00:36:30.005Z,18.55
2023-02-15T00:37:29.987Z,18.53
2023-02-15T00:38:29.972Z,18.53
2023-02-15T00:39:30.028Z,18.55
2023-02-15T00:40:29.945Z,18.55
2023-02-15T00:41:29.937Z,18.53
2023-02-15T00:42:29.952Z,18.53
2023-02-15T00:43:29.936Z,18.53
2023-02-15T00:44:29.925Z,18.53
2023-02-15T00:45:29.899Z,18.53
2023-02-15T00:46:29.870Z,18.50
2023-02-15T00:47:29.878Z,18.52
2023-02-15T00:48:29.907Z,18.55
2023-02-15T00:49:29.858Z,18.52
2023-02-15T00:50:29.843Z,18.55
2023-02-15T00:51:29.818Z,18.50
2023-02-15T00:52:29.805Z,18.50
2023-02-15T00:53:29.803Z,18.52
2023-02-15T00:54:29.812Z,18.50
2023-02-15T00:55:29.780Z,18.49
2023-02-15T00:56:29.765Z,18.49
2023-02-15T00:57:29.762Z,18.47
2023-02-15T00:58:29.739Z,18.45
2023-02-15T00:59:29.739Z,18.47
2023-02-15T01:00:29.719Z,18.45
2023-02-15T01:01:29.834Z,18.49
2023-02-15T01:02:29.700Z,18.47
2023-02-15T01:03:29.697Z,18.50
2023-02-15T01:04:29.720Z,18.49
2023-02-15T01:05:29.671Z,18.45
2023-02-15T01:06:29.653Z,18.47
2023-02-15T01:07:29.649Z,18.47
2023-02-15T01:08:29.631Z,18.45
2023-02-15T01:09:29.633Z,18.47
2023-02-15T01:10:29.613Z,18.45
2023-02-15T01:11:29.605Z,18.44
2023-02-15T01:12:29.587Z,18.43
2023-02-15T01:13:29.590Z,18.44
2023-02-15T01:14:29.571Z,18.44
2023-02-15T01:15:29.568Z,18.43
2023-02-15T01:16:29.619Z,18.43
2023-02-15T01:17:29.536Z,18.41
2023-02-15T01:18:29.551Z,18.43
2023-02-15T01:19:29.527Z,18.41
2023-02-15T01:20:29.515Z,18.40
2023-02-15T01:21:29.500Z,18.38
2023-02-15T01:22:29.479Z,18.41
2023-02-15T01:23:29.511Z,18.41
2023-02-15T01:24:29.459Z,18.43
2023-02-15T01:25:29.453Z,18.43
2023-02-15T01:26:29.437Z,18.43
2023-02-15T01:27:29.433Z,18.43
2023-02-15T01:28:29.430Z,18.40
2023-02-15T01:29:29.418Z,18.38
2023-02-15T01:30:29.397Z,18.37
2023-02-15T01:31:29.480Z,18.35
2023-02-15T01:32:29.371Z,18.35
2023-02-15T01:33:29.368Z,18.35
2023-02-15T01:34:29.357Z,18.37
2023-02-15T01:35:29.348Z,18.35
2023-02-15T01:36:29.326Z,18.38
2023-02-15T01:37:29.320Z,18.34
2023-02-15T01:38:29.316Z,18.35
2023-02-15T01:39:29.313Z,18.37
2023-02-15T01:40:29.280Z,18.38
2023-02-15T01:41:29.290Z,18.38
2023-02-15T01:42:29.259Z,18.37
2023-02-15T01:43:29.262Z,18.37
2023-02-15T01:44:29.248Z,18.35
2023-02-15T01:45:29.251Z,18.33
2023-02-15T01:46:29.285Z,18.33
2023-02-15T01:47:29.227Z,18.33
2023-02-15T01:48:29.196Z,18.29
2023-02-15T01:49:29.202Z,18.28
2023-02-15T01:50:29.177Z,18.29
2023-02-15T01:51:29.160Z,18.28
2023-02-15T01:52:29.155Z,18.26
2023-02-15T01:53:29.141Z,18.26
2023-02-15T01:54:29.132Z,18.25
2023-02-15T01:55:29.137Z,18.25
2023-02-15T01:56:29.104Z,18.23
2023-02-15T01:57:29.091Z,18.25
2023-02-15T01:58:29.110Z,18.22
2023-02-15T01:59:29.154Z,18.23
2023-02-15T02:00:29.058Z,18.25
2023-02-15T02:01:29.127Z,18.26
2023-02-15T02:02:29.102Z,18.28
2023-02-15T02:03:29.029Z,18.29
2023-02-15T02:04:29.023Z,18.26
2023-02-15T02:05:29.014Z,18.28
2023-02-15T02:06:28.996Z,18.31
2023-02-15T02:07:28.984Z,18.29
2023-02-15T02:08:28.976Z,18.31
2023-02-15T02:09:28.961Z,18.33
2023-02-15T02:10:28.962Z,18.33
2023-02-15T02:11:28.947Z,18.33
2023-02-15T02:12:28.928Z,18.31
2023-02-15T02:13:28.919Z,18.28
2023-02-15T02:14:28.902Z,18.31
2023-02-15T02:15:28.918Z,18.29
2023-02-15T02:16:28.908Z,18.26
2023-02-15T02:17:28.881Z,18.26
2023-02-15T02:18:28.877Z,18.28
2023-02-15T02:19:28.854Z,18.25
2023-02-15T02:20:28.835Z,18.23
2023-02-15T02:21:28.837Z,18.25
2023-02-15T02:22:28.811Z,18.26
2023-02-15T02:23:28.906Z,18.28
2023-02-15T02:24:28.790Z,18.25
2023-02-15T02:25:28.793Z,18.26
2023-02-15T02:26:28.825Z,18.25
2023-02-15T02:27:28.773Z,18.25
2023-02-15T02:28:28.769Z,18.25
2023-02-15T02:29:28.747Z,18.25
2023-02-15T02:30:28.865Z,18.23
2023-02-15T02:31:28.958Z,18.26
2023-02-15T02:32:28.717Z,18.23
2023-02-15T02:33:28.698Z,18.20
2023-02-15T02:34:28.681Z,18.22
2023-02-15T02:35:28.671Z,18.22
2023-02-15T02:36:28.682Z,18.22
2023-02-15T02:37:28.673Z,18.22
2023-02-15T02:38:28.635Z,18.20
2023-02-15T02:39:28.630Z,18.23
2023-02-15T02:40:28.626Z,18.23
2023-02-15T02:41:28.610Z,18.25
2023-02-15T02:42:28.609Z,18.26
2023-02-15T02:43:28.593Z,18.25
2023-02-15T02:44:28.569Z,18.25
2023-02-15T02:45:28.583Z,18.26
2023-02-15T02:46:28.669Z,18.28
2023-02-15T02:47:28.556Z,18.28
2023-02-15T02:48:28.544Z,18.29
2023-02-15T02:49:28.521Z,18.29
2023-02-15T02:50:28.505Z,18.28
2023-02-15T02:51:34.670Z,18.29
2023-02-15T02:52:28.505Z,18.33
2023-02-15T02:53:28.474Z,18.29
2023-02-15T02:54:28.459Z,18.28
2023-02-15T02:55:28.459Z,18.29
2023-02-15T02:56:28.437Z,18.29
2023-02-15T02:57:28.425Z,18.31
2023-02-15T02:58:28.454Z,18.29
2023-02-15T02:59:28.409Z,18.31
2023-02-15T03:00:28.396Z,18.31
2023-02-15T03:01:28.428Z,18.31
2023-02-15T03:02:28.424Z,18.28
2023-02-15T03:03:28.367Z,18.29
2023-02-15T03:04:28.350Z,18.31
2023-02-15T03:05:28.382Z,18.33
2023-02-15T03:06:28.342Z,18.33
2023-02-15T03:07:28.323Z,18.33
2023-02-15T03:08:28.312Z,18.33
2023-02-15T03:09:28.294Z,18.35
2023-02-15T03:10:28.292Z,18.34
2023-02-15T03:11:28.284Z,18.37
2023-02-15T03:12:28.283Z,18.35
2023-02-15T03:13:28.252Z,18.35
2023-02-15T03:14:28.243Z,18.35
2023-02-15T03:15:28.234Z,18.35
2023-02-15T03:16:28.315Z,18.34
2023-02-15T03:17:28.204Z,18.37
2023-02-15T03:18:28.204Z,18.37
2023-02-15T03:19:28.193Z,18.33
2023-02-15T03:20:28.182Z,18.29
2023-02-15T03:21:28.184Z,18.29
2023-02-15T03:22:28.172Z,18.31
2023-02-15T03:23:28.149Z,18.28
2023-02-15T03:24:28.140Z,18.26
2023-02-15T03:25:28.120Z,18.25
2023-02-15T03:26:28.129Z,18.23
2023-02-15T03:27:28.111Z,18.23
2023-02-15T03:28:28.150Z,18.22
2023-02-15T03:29:28.081Z,18.20
2023-02-15T03:30:28.103Z,18.20
2023-02-15T03:31:28.300Z,18.20
2023-02-15T03:32:28.048Z,18.22
2023-02-15T03:33:28.036Z,18.19
2023-02-15T03:34:28.027Z,18.16
2023-02-15T03:35:28.015Z,18.15
2023-02-15T03:36:28.020Z,18.13
2023-02-15T03:37:27.999Z,18.11
2023-02-15T03:38:27.980Z,18.11
2023-02-15T03:39:27.970Z,18.10
2023-02-15T03:40:27.965Z,18.08
2023-02-15T03:41:27.961Z,18.07
2023-02-15T03:42:27.934Z,18.05
2023-02-15T03:43:27.924Z,18.05
2023-02-15T03:44:27.910Z,18.04
2023-02-15T03:45:27.908Z,18.04
2023-02-15T03:46:27.943Z,18.05
2023-02-15T03:47:27.891Z,18.03
2023-02-15T03:48:27.868Z,18.01
2023-02-15T03:49:27.864Z,18.01
2023-02-15T03:50:27.857Z,18.00
2023-02-15T03:51:27.835Z,17.98
2023-02-15T03:52:27.838Z,17.98
2023-02-15T03:53:27.831Z,17.97
2023-02-15T03:54:27.804Z,17.95
2023-02-15T03:55:27.788Z,17.95
2023-02-15T03:56:27.785Z,17.95
2023-02-15T03:57:27.771Z,17.97
2023-02-15T03:58:27.774Z,17.94
2023-02-15T03:59:27.760Z,17.97
2023-02-15T04:00:27.740Z,17.97
2023-02-15T04:01:27.758Z,17.98
2023-02-15T04:02:27.728Z,18.00
2023-02-15T04:03:27.720Z,17.98
2023-02-15T04:04:27.690Z,18.00
2023-02-15T04:05:27.702Z,17.98
2023-02-15T04:06:27.691Z,17.98
2023-02-15T04:07:27.686Z,17.98
2023-02-15T04:08:27.659Z,18.00
2023-02-15T04:09:27.629Z,18.01
2023-02-15T04:10:27.626Z,18.01
2023-02-15T04:11:27.609Z,18.00
2023-02-15T04:12:27.627Z,18.03
2023-02-15T04:13:27.613Z,18.04
2023-02-15T04:14:27.589Z,18.03
2023-02-15T04:15:27.561Z,18.01
2023-02-15T04:16:29.674Z,18.00
2023-02-15T04:17:27.549Z,18.01
2023-02-15T04:18:27.550Z,18.00
2023-02-15T04:19:27.521Z,18.00
2023-02-15T04:20:27.512Z,17.98
2023-02-15T04:21:27.496Z,17.98
2023-02-15T04:22:27.488Z,18.00
2023-02-15T04:23:27.474Z,18.00
2023-02-15T04:24:27.488Z,18.00
2023-02-15T04:25:27.449Z,18.00
2023-02-15T04:26:27.441Z,17.98
2023-02-15T04:27:27.438Z,18.01
2023-02-15T04:28:27.430Z,18.01
2023-02-15T04:29:27.426Z,18.00
2023-02-15T04:30:27.426Z,17.98
2023-02-15T04:31:27.539Z,18.01
2023-02-15T04:32:27.376Z,18.01
2023-02-15T04:33:27.365Z,18.01
2023-02-15T04:34:27.376Z,18.03
2023-02-15T04:35:27.371Z,18.04
2023-02-15T04:36:27.330Z,18.05
2023-02-15T04:37:27.332Z,18.05
2023-02-15T04:38:27.321Z,18.07
2023-02-15T04:39:27.331Z,18.10
2023-02-15T04:40:27.297Z,18.13
2023-02-15T04:41:27.269Z,18.15
2023-02-15T04:42:27.262Z,18.18
2023-02-15T04:43:27.271Z,18.22
2023-02-15T04:44:27.288Z,18.26
2023-02-15T04:45:27.231Z,18.37
2023-02-15T04:46:27.219Z,18.43
2023-02-15T04:47:27.206Z,18.50
2023-02-15T04:48:27.201Z,18.55
2023-02-15T04:49:27.147Z,18.63
2023-02-15T04:50:27.218Z,18.73
2023-02-15T04:51:27.167Z,18.78
2023-02-15T04:52:27.154Z,18.86
2023-02-15T04:53:27.151Z,18.92
2023-02-15T04:54:27.137Z,19.00
2023-02-15T04:55:27.126Z,19.09
2023-02-15T04:56:27.120Z,19.16
2023-02-15T04:57:27.107Z,19.21
2023-02-15T04:58:27.104Z,19.27
2023-02-15T04:59:27.083Z,19.31
2023-02-15T05:00:27.076Z,19.37
2023-02-15T05:01:27.098Z,19.41
2023-02-15T05:02:27.070Z,19.49
2023-02-15T05:03:27.035Z,19.54
2023-02-15T05:04:27.148Z,19.58
2023-02-15T05:05:27.027Z,19.64
2023-02-15T05:06:27.003Z,19.67
2023-02-15T05:07:26.988Z,19.71
2023-02-15T05:08:27.031Z,19.71
2023-02-15T05:09:26.968Z,19.79
2023-02-15T05:10:26.971Z,19.82
2023-02-15T05:11:26.952Z,19.88
2023-02-15T05:12:26.938Z,19.94
2023-02-15T05:13:26.932Z,19.94
2023-02-15T05:14:26.921Z,20.00
2023-02-15T05:15:26.909Z,20.02
2023-02-15T05:16:26.985Z,20.04
2023-02-15T05:17:26.887Z,20.09
2023-02-15T05:18:26.889Z,20.10
2023-02-15T05:19:26.872Z,20.14
2023-02-15T05:20:26.854Z,20.18
2023-02-15T05:21:26.835Z,20.22
2023-02-15T05:22:26.829Z,20.24
2023-02-15T05:23:26.817Z,20.29
2023-02-15T05:24:26.838Z,20.29
2023-02-15T05:25:26.805Z,20.29
2023-02-15T05:26:26.789Z,20.32
2023-02-15T05:27:26.776Z,20.34
2023-02-15T05:28:26.760Z,20.36
2023-02-15T05:29:26.765Z,20.39
2023-02-15T05:30:27.010Z,20.41
2023-02-15T05:31:27.067Z,20.44
2023-02-15T05:32:26.854Z,20.47
2023-02-15T05:33:26.716Z,20.51
2023-02-15T05:34:26.700Z,20.55
2023-02-15T05:35:26.681Z,20.56
2023-02-15T05:36:26.682Z,20.58
2023-02-15T05:37:26.660Z,20.56
2023-02-15T05:38:26.667Z,20.58
2023-02-15T05:39:26.682Z,20.56
2023-02-15T05:40:26.735Z,20.56
2023-02-15T05:41:26.669Z,20.56
2023-02-15T05:42:26.630Z,20.56
2023-02-15T05:43:26.673Z,20.56
2023-02-15T05:44:26.599Z,20.56
2023-02-15T05:45:26.620Z,20.51
2023-02-15T05:46:26.663Z,20.51
2023-02-15T05:47:26.518Z,20.51
2023-02-15T05:48:26.560Z,20.51
2023-02-15T05:49:26.552Z,20.52
2023-02-15T05:50:26.547Z,20.52
2023-02-15T05:51:26.525Z,20.50
2023-02-15T05:52:26.527Z,20.50
2023-02-15T05:53:26.496Z,20.48
2023-02-15T05:54:26.489Z,20.50
2023-02-15T05:55:26.480Z,20.48
2023-02-15T05:56:26.495Z,20.44
2023-02-15T05:57:26.461Z,20.47
2023-02-15T05:58:26.460Z,20.47
2023-02-15T05:59:26.443Z,20.50
2023-02-15T06:00:26.440Z,20.50
2023-02-15T06:01:26.422Z,20.48
2023-02-15T06:02:26.451Z,20.51
2023-02-15T06:03:26.421Z,20.52
2023-02-15T06:04:26.399Z,20.55
2023-02-15T06:05:26.374Z,20.52
2023-02-15T06:06:26.311Z,20.58
2023-02-15T06:07:26.365Z,20.63
2023-02-15T06:08:26.301Z,20.62
2023-02-15T06:09:26.330Z,20.62
2023-02-15T06:10:26.326Z,20.62
2023-02-15T06:11:26.304Z,20.62
2023-02-15T06:12:26.308Z,20.60
2023-02-15T06:13:26.295Z,20.62
2023-02-15T06:14:26.246Z,20.63
2023-02-15T06:15:26.255Z,20.63
2023-02-15T06:16:26.211Z,20.65
2023-02-15T06:17:26.188Z,20.66
2023-02-15T06:18:26.181Z,20.67
2023-02-15T06:19:26.166Z,20.69
2023-02-15T06:20:26.158Z,20.72
2023-02-15T06:21:26.216Z,20.70
2023-02-15T06:22:26.158Z,20.75
2023-02-15T06:23:26.135Z,20.77
2023-02-15T06:24:26.191Z,20.77
2023-02-15T06:25:26.170Z,20.78
2023-02-15T06:26:26.135Z,20.80
2023-02-15T06:27:26.090Z,20.81
2023-02-15T06:28:26.095Z,20.81
2023-02-15T06:29:26.061Z,20.82
2023-02-15T06:30:26.126Z,20.81
2023-02-15T06:31:26.129Z,20.81
2023-02-15T06:32:26.050Z,20.84
2023-02-15T06:33:26.019Z,20.84
2023-02-15T06:34:26.011Z,20.87
2023-02-15T06:35:26.001Z,20.87
2023-02-15T06:36:25.992Z,20.88
2023-02-15T06:37:25.986Z,20.88
2023-02-15T06:38:25.968Z,20.88
2023-02-15T06:39:25.967Z,20.90
2023-02-15T06:40:25.948Z,20.87
2023-02-15T06:41:25.929Z,20.88
2023-02-15T06:42:25.951Z,20.90
2023-02-15T06:43:25.951Z,20.87
2023-02-15T06:44:25.910Z,20.88
2023-02-15T06:45:25.900Z,20.88
2023-02-15T06:46:25.983Z,20.88
2023-02-15T06:47:25.917Z,20.90
2023-02-15T06:48:25.868Z,20.92
2023-02-15T06:49:25.848Z,20.88
2023-02-15T06:50:25.846Z,20.92
2023-02-15T06:51:25.844Z,20.90
2023-02-15T06:52:25.825Z,20.90
2023-02-15T06:53:25.850Z,20.93
2023-02-15T06:54:25.821Z,20.95
2023-02-15T06:55:25.794Z,20.96
2023-02-15T06:56:25.777Z,20.99
2023-02-15T06:57:25.769Z,21.00
2023-02-15T06:58:25.769Z,21.03
2023-02-15T06:59:25.754Z,21.05
2023-02-15T07:00:25.736Z,21.05
2023-02-15T07:01:25.807Z,21.07
2023-02-15T07:02:25.712Z,21.06
2023-02-15T07:03:25.703Z,21.07
2023-02-15T07:04:25.749Z,21.07
2023-02-15T07:05:25.690Z,21.12
2023-02-15T07:06:25.664Z,21.12
2023-02-15T07:07:25.654Z,21.20
2023-02-15T07:08:25.695Z,21.18
2023-02-15T07:09:25.820Z,21.21
2023-02-15T07:10:25.624Z,21.22
2023-02-15T07:11:25.631Z,21.21
2023-02-15T07:12:25.593Z,21.20
2023-02-15T07:13:25.591Z,21.21
2023-02-15T07:14:27.184Z,21.22
2023-02-15T07:15:25.578Z,21.25
2023-02-15T07:16:25.641Z,21.22
2023-02-15T07:17:35.428Z,21.29
2023-02-15T07:18:25.535Z,21.27
2023-02-15T07:19:25.541Z,21.29
2023-02-15T07:20:25.523Z,21.24
2023-02-15T07:21:25.509Z,21.24
2023-02-15T07:22:25.516Z,21.25
2023-02-15T07:23:25.479Z,21.22
2023-02-15T07:24:25.474Z,21.21
2023-02-15T07:25:25.478Z,21.24
2023-02-15T07:26:25.458Z,21.24
2023-02-15T07:27:25.439Z,21.24
2023-02-15T07:28:25.444Z,21.24
2023-02-15T07:29:25.646Z,21.24
2023-02-15T07:30:25.470Z,21.27
2023-02-15T07:31:25.423Z,21.27
2023-02-15T07:32:25.472Z,21.29
2023-02-15T07:33:25.387Z,21.30
2023-02-15T07:34:25.376Z,21.30
2023-02-15T07:35:25.349Z,21.27
2023-02-15T07:36:25.340Z,21.29
2023-02-15T07:37:25.358Z,21.32
2023-02-15T07:38:25.335Z,21.33
2023-02-15T07:39:25.315Z,21.33
2023-02-15T07:40:25.294Z,21.33
2023-02-15T07:41:25.287Z,21.35
2023-02-15T07:42:25.331Z,21.37
2023-02-15T07:43:25.278Z,21.40
2023-02-15T07:44:25.256Z,21.40
2023-02-15T07:45:25.251Z,21.39
2023-02-15T07:46:25.255Z,21.40
2023-02-15T07:47:25.234Z,21.37
2023-02-15T07:48:25.233Z,21.42
2023-02-15T07:49:25.206Z,21.43
2023-02-15T07:50:25.198Z,21.45
2023-02-15T07:51:25.181Z,21.43
2023-02-15T07:52:25.169Z,21.46
2023-02-15T07:53:25.211Z,21.45
2023-02-15T07:54:25.162Z,21.45
2023-02-15T07:55:25.144Z,21.40
2023-02-15T07:56:25.151Z,21.43
2023-02-15T07:57:25.141Z,21.39
2023-02-15T07:58:25.118Z,21.42
2023-02-15T07:59:25.118Z,21.45
2023-02-15T08:00:25.087Z,21.48
2023-02-15T08:01:25.111Z,21.50
2023-02-15T08:02:25.127Z,21.54
2023-02-15T08:03:25.291Z,21.51
2023-02-15T08:04:25.061Z,21.51
2023-02-15T08:05:25.059Z,21.50
2023-02-15T08:06:25.020Z,21.51
2023-02-15T08:07:25.031Z,21.50
2023-02-15T08:08:25.038Z,21.52
2023-02-15T08:09:25.043Z,21.54
2023-02-15T08:10:24.976Z,21.60
2023-02-15T08:11:25.019Z,21.60
2023-02-15T08:12:24.959Z,21.62
2023-02-15T08:13:24.960Z,21.66
2023-02-15T08:14:24.956Z,21.66
2023-02-15T08:15:24.965Z,21.70
2023-02-15T08:16:24.979Z,21.72
2023-02-15T08:17:24.921Z,21.73
2023-02-15T08:18:24.897Z,21.72
2023-02-15T08:19:24.895Z,21.75
2023-02-15T08:20:24.921Z,21.79
2023-02-15T08:21:25.141Z,21.80
2023-02-15T08:22:24.900Z,21.83
2023-02-15T08:23:24.911Z,21.89
2023-02-15T08:24:24.861Z,21.92
2023-02-15T08:25:24.826Z,21.95
2023-02-15T08:26:24.821Z,21.95
2023-02-15T08:27:24.811Z,21.93
2023-02-15T08:28:24.821Z,21.93
2023-02-15T08:29:24.796Z,21.95
2023-02-15T08:30:24.871Z,21.95
2023-02-15T08:31:24.970Z,21.96
2023-02-15T08:32:24.933Z,21.95
2023-02-15T08:33:24.748Z,21.95
2023-02-15T08:34:24.733Z,21.92
2023-02-15T08:35:24.720Z,21.95
2023-02-15T08:36:24.709Z,21.95
2023-02-15T08:37:24.711Z,21.92
2023-02-15T08:38:24.718Z,21.95
2023-02-15T08:39:24.719Z,21.95
2023-02-15T08:40:24.690Z,21.95
2023-02-15T08:41:24.654Z,21.99
2023-02-15T08:42:24.667Z,21.98
2023-02-15T08:43:24.648Z,21.96
2023-02-15T08:44:24.633Z,22.00
2023-02-15T08:45:24.612Z,21.96
2023-02-15T08:46:24.598Z,21.98
2023-02-15T08:47:24.594Z,21.98
2023-02-15T08:48:24.580Z,21.99
2023-02-15T08:49:24.628Z,21.96
2023-02-15T08:50:24.573Z,21.98
2023-02-15T08:51:24.552Z,21.99
2023-02-15T08:52:24.539Z,22.00
2023-02-15T08:53:24.530Z,21.99
2023-02-15T08:54:24.572Z,21.99
2023-02-15T08:55:24.520Z,21.98
2023-02-15T08:56:24.499Z,22.00
2023-02-15T08:57:24.501Z,22.00
2023-02-15T08:58:24.473Z,22.04
2023-02-15T08:59:24.459Z,22.02
2023-02-15T09:00:24.454Z,22.02
2023-02-15T09:01:24.510Z,22.00
2023-02-15T09:02:24.503Z,21.95
2023-02-15T09:03:24.426Z,21.88
2023-02-15T09:04:24.412Z,21.85
2023-02-15T09:05:24.408Z,21.80
2023-02-15T09:06:24.394Z,21.80
2023-02-15T09:07:24.392Z,21.76
2023-02-15T09:08:24.377Z,21.73
2023-02-15T09:09:24.363Z,21.75
2023-02-15T09:10:24.422Z,21.73
2023-02-15T09:11:24.346Z,21.72
2023-02-15T09:12:24.342Z,21.73
2023-02-15T09:13:24.311Z,21.73
2023-02-15T09:14:24.318Z,21.75
2023-02-15T09:15:24.295Z,21.77
2023-02-15T09:16:24.374Z,21.80
2023-02-15T09:17:24.277Z,21.79
2023-02-15T09:18:24.266Z,21.83
2023-02-15T09:19:24.251Z,21.83
2023-02-15T09:20:24.237Z,21.83
2023-02-15T09:21:24.273Z,21.83
2023-02-15T09:22:24.226Z,21.82
2023-02-15T09:23:27.403Z,21.82
2023-02-15T09:24:24.194Z,21.82
2023-02-15T09:25:24.197Z,21.80
2023-02-15T09:26:24.170Z,21.79
2023-02-15T09:27:25.112Z,21.75
2023-02-15T09:28:24.160Z,21.73
2023-02-15T09:29:24.155Z,21.70
2023-02-15T09:30:24.360Z,21.73
2023-02-15T09:31:24.283Z,21.73
2023-02-15T09:32:24.105Z,21.73
2023-02-15T09:33:24.125Z,21.73
2023-02-15T09:34:24.085Z,21.75
2023-02-15T09:35:24.075Z,21.77
2023-02-15T09:36:24.055Z,21.77
2023-02-15T09:37:24.097Z,21.80
2023-02-15T09:38:24.041Z,21.82
2023-02-15T09:39:24.045Z,21.85
2023-02-15T09:40:24.024Z,21.88
2023-02-15T09:41:24.014Z,21.83
2023-02-15T09:42:24.012Z,21.85
2023-02-15T09:43:24.121Z,21.82
2023-02-15T09:44:23.997Z,21.83
2023-02-15T09:45:23.989Z,21.89
2023-02-15T09:46:24.037Z,21.88
2023-02-15T09:47:23.957Z,21.89
2023-02-15T09:48:23.929Z,21.92
2023-02-15T09:49:23.957Z,21.95
2023-02-15T09:50:23.933Z,21.93
2023-02-15T09:51:23.917Z,21.95
2023-02-15T09:52:23.889Z,21.95
2023-02-15T09:53:23.896Z,21.93
2023-02-15T09:54:23.886Z,21.92
2023-02-15T09:55:23.860Z,21.93
2023-02-15T09:56:23.853Z,21.96
2023-02-15T09:57:23.854Z,21.96
2023-02-15T09:58:23.826Z,21.99
2023-02-15T09:59:23.822Z,21.98
2023-02-15T10:00:23.816Z,21.98
2023-02-15T10:01:23.916Z,21.99
2023-02-15T10:02:23.799Z,21.96
2023-02-15T10:03:23.780Z,21.96
2023-02-15T10:04:23.828Z,22.00
2023-02-15T10:05:23.776Z,22.00
2023-02-15T10:06:23.752Z,22.00
2023-02-15T10:07:23.769Z,21.98
2023-02-15T10:08:23.728Z,22.00
2023-02-15T10:09:23.716Z,21.99
2023-02-15T10:10:23.703Z,21.96
2023-02-15T10:11:23.697Z,21.95
2023-02-15T10:12:23.693Z,21.96
2023-02-15T10:13:23.728Z,21.98
2023-02-15T10:14:23.681Z,21.98
2023-02-15T10:15:23.650Z,21.98
2023-02-15T10:16:23.672Z,21.95
2023-02-15T10:17:23.636Z,21.92
2023-02-15T10:18:23.634Z,21.92
2023-02-15T10:19:23.638Z,21.91
2023-02-15T10:20:23.597Z,21.91
2023-02-15T10:21:23.607Z,21.93
2023-02-15T10:22:23.575Z,21.95
2023-02-15T10:23:23.582Z,21.92
2023-02-15T10:24:23.555Z,21.92
2023-02-15T10:25:23.559Z,21.95
2023-02-15T10:26:23.573Z,21.91
2023-02-15T10:27:23.542Z,21.89
2023-02-15T10:28:23.509Z,21.83
2023-02-15T10:29:23.510Z,21.83
2023-02-15T10:30:23.610Z,21.82
2023-02-15T10:31:23.623Z,21.83
2023-02-15T10:32:23.564Z,21.82
2023-02-15T10:33:23.466Z,21.83
2023-02-15T10:34:23.454Z,21.85
2023-02-15T10:35:23.439Z,21.83
2023-02-15T10:36:23.428Z,21.88
2023-02-15T10:37:23.417Z,21.88
2023-02-15T10:38:23.402Z,21.89
2023-02-15T10:39:23.404Z,21.92
2023-02-15T10:40:23.393Z,21.91
2023-02-15T10:41:23.383Z,21.89
2023-02-15T10:42:23.358Z,21.92
2023-02-15T10:43:23.363Z,21.93
2023-02-15T10:44:23.357Z,21.96
2023-02-15T10:45:23.333Z,21.92
2023-02-15T10:46:23.375Z,21.89
2023-02-15T10:47:23.320Z,21.85
2023-02-15T10:48:23.306Z,21.82
2023-02-15T10:49:23.289Z,21.82
2023-02-15T10:50:23.273Z,21.82
2023-02-15T10:51:23.268Z,21.79
2023-02-15T10:52:24.467Z,21.79
2023-02-15T10:53:23.292Z,21.79
2023-02-15T10:54:29.566Z,21.79
2023-02-15T10:55:23.228Z,21.83
2023-02-15T10:56:23.220Z,21.89
2023-02-15T10:57:23.229Z,21.89
2023-02-15T10:58:23.199Z,21.85
2023-02-15T10:59:23.188Z,21.88
2023-02-15T11:00:23.174Z,21.82
2023-02-15T11:01:23.210Z,21.83
2023-02-15T11:02:23.189Z,21.79
2023-02-15T11:03:23.160Z,21.75
2023-02-15T11:04:23.144Z,21.72
2023-02-15T11:05:23.187Z,21.66
2023-02-15T11:06:23.108Z,21.69
2023-02-15T11:07:23.102Z,21.66
2023-02-15T11:08:23.082Z,21.66
2023-02-15T11:09:23.086Z,21.67
2023-02-15T11:10:23.075Z,21.67
2023-02-15T11:11:23.066Z,21.69
2023-02-15T11:12:23.046Z,21.69
2023-02-15T11:13:23.038Z,21.75
2023-02-15T11:14:23.037Z,21.69
2023-02-15T11:15:23.018Z,21.69
2023-02-15T11:16:23.052Z,21.69
2023-02-15T11:17:23.011Z,21.70
2023-02-15T11:18:22.994Z,21.69
2023-02-15T11:19:22.975Z,21.67
2023-02-15T11:20:23.012Z,21.64
2023-02-15T11:21:22.952Z,21.61
2023-02-15T11:22:22.997Z,21.57
2023-02-15T11:23:22.965Z,21.55
2023-02-15T11:24:22.926Z,21.54
2023-02-15T11:25:22.920Z,21.51
2023-02-15T11:26:22.913Z,21.54
2023-02-15T11:27:22.951Z,21.55
2023-02-15T11:28:22.887Z,21.55
2023-02-15T11:29:22.870Z,21.55
2023-02-15T11:30:22.921Z,21.57
2023-02-15T11:31:22.962Z,21.55
2023-02-15T11:32:22.855Z,21.52
2023-02-15T11:33:22.821Z,21.54
2023-02-15T11:34:22.859Z,21.52
2023-02-15T11:35:22.809Z,21.54
2023-02-15T11:36:22.809Z,21.52
2023-02-15T11:37:22.796Z,21.52
2023-02-15T11:38:22.803Z,21.57
2023-02-15T11:39:22.796Z,21.57
2023-02-15T11:40:22.745Z,21.54
2023-02-15T11:41:22.735Z,21.51
2023-02-15T11:42:22.729Z,21.55
2023-02-15T11:43:22.726Z,21.55
2023-02-15T11:44:22.712Z,21.55
2023-02-15T11:45:22.685Z,21.54
2023-02-15T11:46:22.754Z,21.55
2023-02-15T11:47:22.700Z,21.54
2023-02-15T11:48:22.694Z,21.52
2023-02-15T11:49:22.657Z,21.52
2023-02-15T11:50:22.650Z,21.51
2023-02-15T11:51:23.922Z,21.48
2023-02-15T11:52:22.617Z,21.43
2023-02-15T11:53:22.679Z,21.45
2023-02-15T11:54:22.597Z,21.42
2023-02-15T11:55:22.577Z,21.37
2023-02-15T11:56:22.599Z,21.37
2023-02-15T11:57:23.227Z,21.32
2023-02-15T11:58:22.563Z,21.30
2023-02-15T11:59:22.535Z,21.32
2023-02-15T12:00:22.560Z,21.30
2023-02-15T12:01:22.541Z,21.27
2023-02-15T12:02:22.571Z,21.25
2023-02-15T12:03:23.552Z,21.27
2023-02-15T12:04:22.670Z,21.25
2023-02-15T12:05:22.483Z,21.25
2023-02-15T12:06:22.467Z,21.25
2023-02-15T12:07:22.468Z,21.22
2023-02-15T12:08:22.457Z,21.25
2023-02-15T12:09:23.646Z,21.24
2023-02-15T12:10:22.440Z,21.25
2023-02-15T12:11:22.415Z,21.24
2023-02-15T12:12:22.421Z,21.25
2023-02-15T12:13:22.387Z,21.22
2023-02-15T12:14:22.397Z,21.24
2023-02-15T12:15:22.379Z,21.22
2023-02-15T12:16:22.382Z,21.21
2023-02-15T12:17:22.352Z,21.22
2023-02-15T12:18:22.359Z,21.21
2023-02-15T12:19:22.335Z,21.20
2023-02-15T12:20:22.329Z,21.22
2023-02-15T12:21:22.304Z,21.20
2023-02-15T12:22:22.308Z,21.18
2023-02-15T12:23:22.291Z,21.20
2023-02-15T12:24:22.291Z,21.17
2023-02-15T12:25:22.283Z,21.12
2023-02-15T12:26:22.250Z,21.14
2023-02-15T12:27:22.328Z,21.11
2023-02-15T12:28:22.228Z,21.11
2023-02-15T12:29:22.222Z,21.06
2023-02-15T12:30:22.304Z,21.09
2023-02-15T12:31:22.341Z,21.05
2023-02-15T12:32:22.295Z,21.05
2023-02-15T12:33:22.194Z,21.03
2023-02-15T12:34:22.196Z,21.05
2023-02-15T12:35:22.155Z,20.99
2023-02-15T12:36:22.146Z,21.02
2023-02-15T12:37:22.137Z,20.99
2023-02-15T12:38:22.132Z,20.99
2023-02-15T12:39:22.123Z,21.00
2023-02-15T12:40:22.133Z,20.99
2023-02-15T12:41:22.090Z,21.02
2023-02-15T12:42:22.090Z,21.03
2023-02-15T12:43:22.076Z,21.02
2023-02-15T12:44:22.068Z,21.00
2023-02-15T12:45:22.057Z,21.02
2023-02-15T12:46:22.139Z,21.02
2023-02-15T12:47:22.234Z,21.03
2023-02-15T12:48:22.031Z,21.03
2023-02-15T12:49:22.036Z,21.05
2023-02-15T12:50:21.995Z,21.03
2023-02-15T12:51:21.991Z,21.02
2023-02-15T12:52:21.975Z,21.02